Time;durP1;ratioP1;P1;durP2;ratioP2;P2;SDS_P1;SDS_P2;PMS_P1;PMS_P2;Temp;Humidity;BMP_temperature;BMP_pressure;BME280_temperature;BME280_humidity;BME280_pressure;Samples;Min_cycle;Max_cycle;Signal;HPM_P1;HPM_P2
2021/03/13 00:00:33;;;;;;;2.40;0.68;;;6.70;99.90;;;;;;5045074;28;20024;-73
2021/03/13 00:02:59;;;;;;;0.70;0.50;;;6.70;99.90;;;;;;5053158;28;20041;-72
2021/03/13 00:05:27;;;;;;;1.60;0.68;;;6.70;99.90;;;;;;5049450;28;20025;-74
2021/03/13 00:07:53;;;;;;;0.95;0.60;;;6.70;99.90;;;;;;5047598;28;20483;-74
2021/03/13 00:10:20;;;;;;;0.68;0.68;;;6.70;99.90;;;;;;5049749;28;20047;-72
2021/03/13 00:12:45;;;;;;;0.70;0.55;;;6.80;99.90;;;;;;5051673;28;20545;-74
2021/03/13 00:15:14;;;;;;;0.57;0.43;;;6.80;99.90;;;;;;5046558;28;20041;-74
2021/03/13 00:17:47;;;;;;;2.95;0.60;;;6.80;99.90;;;;;;5052616;28;20075;-73
2021/03/13 00:20:16;;;;;;;3.83;0.80;;;6.70;99.90;;;;;;5054754;28;20108;-74
2021/03/13 00:22:42;;;;;;;0.95;0.60;;;6.70;99.90;;;;;;5051680;28;20040;-74
2021/03/13 00:25:08;;;;;;;2.00;0.73;;;6.70;99.90;;;;;;5052222;28;20028;-73
2021/03/13 00:27:45;;;;;;;3.72;0.93;;;6.70;99.90;;;;;;5055372;28;20066;-73
2021/03/13 00:30:14;;;;;;;1.27;0.75;;;6.70;99.90;;;;;;5056264;28;20077;-73
2021/03/13 00:32:40;;;;;;;1.85;0.80;;;6.70;99.90;;;;;;5052392;28;20032;-73
2021/03/13 00:35:06;;;;;;;2.85;0.80;;;6.80;99.90;;;;;;5048863;28;20581;-73
2021/03/13 00:37:32;;;;;;;1.38;0.80;;;6.80;99.90;;;;;;5050673;28;20111;-73
2021/03/13 00:39:57;;;;;;;1.98;1.00;;;6.80;99.90;;;;;;5050399;28;20112;-73
2021/03/13 00:42:26;;;;;;;1.35;1.13;;;6.80;99.90;;;;;;5044424;28;20032;-73
2021/03/13 00:44:51;;;;;;;0.77;0.73;;;6.80;99.90;;;;;;5047897;28;20460;-73
2021/03/13 00:47:17;;;;;;;1.15;0.90;;;6.70;99.90;;;;;;5049172;28;20107;-74
2021/03/13 00:49:42;;;;;;;1.50;1.02;;;6.70;99.90;;;;;;5051860;28;20036;-73
2021/03/13 00:52:08;;;;;;;1.38;0.98;;;6.80;99.90;;;;;;5046910;28;20025;-74
2021/03/13 00:54:33;;;;;;;0.90;0.70;;;6.70;99.90;;;;;;5048936;28;20056;-73
2021/03/13 00:56:59;;;;;;;2.83;1.23;;;6.60;99.90;;;;;;5049134;28;20024;-72
2021/03/13 00:59:24;;;;;;;2.67;0.82;;;6.70;99.90;;;;;;5048130;28;20127;-73
2021/03/13 01:01:58;;;;;;;1.30;0.95;;;6.70;99.90;;;;;;5054758;28;20052;-73
2021/03/13 01:04:24;;;;;;;4.72;0.90;;;6.70;99.90;;;;;;5051430;28;20829;-73
2021/03/13 01:06:50;;;;;;;3.40;1.10;;;6.70;99.90;;;;;;5047296;28;20033;-74
2021/03/13 01:09:16;;;;;;;3.03;1.42;;;6.70;99.90;;;;;;5032533;28;20637;-71
2021/03/13 01:11:42;;;;;;;1.27;0.77;;;6.70;99.90;;;;;;5047364;28;20077;-72
2021/03/13 01:14:08;;;;;;;0.63;0.63;;;6.70;99.90;;;;;;5048054;28;20269;-72
2021/03/13 01:16:33;;;;;;;1.92;0.95;;;6.70;99.90;;;;;;5048004;28;20092;-72
2021/03/13 01:18:59;;;;;;;2.88;1.00;;;6.70;99.90;;;;;;5054643;28;20112;-72
2021/03/13 01:21:24;;;;;;;5.07;1.20;;;6.70;99.90;;;;;;5052647;28;20028;-72
2021/03/13 01:23:50;;;;;;;1.42;0.98;;;6.70;99.90;;;;;;5054830;28;20131;-72
2021/03/13 01:26:16;;;;;;;3.00;0.90;;;6.70;99.90;;;;;;5052302;28;20035;-72
2021/03/13 01:28:41;;;;;;;2.13;1.00;;;6.70;99.90;;;;;;5046817;28;20028;-73
2021/03/13 01:31:07;;;;;;;3.58;1.05;;;6.70;99.90;;;;;;5049811;28;20078;-73
2021/03/13 01:33:32;;;;;;;2.60;1.15;;;6.70;99.90;;;;;;5049171;28;20046;-73
2021/03/13 01:35:58;;;;;;;2.53;1.25;;;6.60;99.90;;;;;;5054624;28;20717;-73
2021/03/13 01:38:23;;;;;;;0.85;0.82;;;6.70;99.90;;;;;;5045113;28;20542;-73
2021/03/13 01:40:49;;;;;;;2.50;1.00;;;6.60;99.90;;;;;;5052548;28;20064;-73
2021/03/13 01:43:15;;;;;;;2.63;1.02;;;6.60;99.90;;;;;;5049941;28;20072;-72
2021/03/13 01:45:40;;;;;;;2.17;1.00;;;6.60;99.90;;;;;;5049117;28;20037;-72
2021/03/13 01:48:07;;;;;;;5.00;1.60;;;6.50;99.90;;;;;;5044657;28;20094;-72
2021/03/13 01:50:36;;;;;;;3.53;1.20;;;6.60;99.90;;;;;;5044998;28;20563;-73
2021/03/13 01:53:02;;;;;;;3.20;1.10;;;6.60;99.90;;;;;;5034806;28;20120;-73
2021/03/13 01:55:27;;;;;;;1.70;1.15;;;6.60;99.90;;;;;;5039450;28;20123;-73
2021/03/13 01:57:53;;;;;;;5.45;1.30;;;6.60;99.90;;;;;;5046131;28;20032;-73
2021/03/13 02:00:22;;;;;;;2.65;1.20;;;6.50;99.90;;;;;;5046333;28;20032;-73
2021/03/13 02:02:47;;;;;;;4.75;1.30;;;6.60;99.90;;;;;;5047421;28;20060;-73
2021/03/13 02:05:25;;;;;;;2.78;1.20;;;6.60;99.90;;;;;;5048126;28;20483;-73
2021/03/13 02:08:08;;;;;;;2.25;1.33;;;6.60;99.90;;;;;;5041739;28;20106;-73
2021/03/13 02:11:03;;;;;;;3.28;1.58;;;6.60;99.90;;;;;;5049493;28;20107;-73
2021/03/13 02:13:47;;;;;;;1.55;1.35;;;6.60;99.90;;;;;;5045363;28;20029;-73
2021/03/13 02:16:28;;;;;;;7.60;1.58;;;6.50;99.90;;;;;;5058190;28;20021;-73
2021/03/13 02:19:19;;;;;;;6.30;1.60;;;6.50;99.90;;;;;;5046671;28;20033;-73
2021/03/13 02:22:05;;;;;;;;;;;6.40;99.90;;;;;;5047929;28;20174;-73
2021/03/13 02:24:44;;;;;;;1.73;1.10;;;6.40;99.90;;;;;;5053881;28;19908;-73
2021/03/13 02:27:21;;;;;;;4.60;1.60;;;6.40;99.90;;;;;;5046627;28;20103;-74
2021/03/13 02:29:59;;;;;;;2.45;1.65;;;6.40;99.90;;;;;;5053226;28;20274;-73
2021/03/13 02:32:49;;;;;;;4.35;1.60;;;6.40;99.90;;;;;;5048746;28;20057;-73
2021/03/13 02:35:20;;;;;;;2.70;1.10;;;6.40;99.90;;;;;;5044912;28;20032;-73
2021/03/13 02:37:48;;;;;;;3.03;1.50;;;6.30;99.90;;;;;;5042073;28;20426;-74
2021/03/13 02:40:18;;;;;;;2.90;1.40;;;6.30;99.90;;;;;;5053609;28;20036;-74
2021/03/13 02:42:53;;;;;;;3.50;1.40;;;6.40;99.90;;;;;;5048165;28;20020;-73
2021/03/13 02:45:24;;;;;;;2.25;1.35;;;6.40;99.90;;;;;;5053851;28;20024;-73
2021/03/13 02:47:51;;;;;;;5.13;1.50;;;6.40;99.90;;;;;;5052374;28;20501;-73
2021/03/13 02:50:17;;;;;;;3.53;1.70;;;6.40;99.90;;;;;;5056828;28;20054;-73
2021/03/13 02:52:44;;;;;;;5.63;1.55;;;6.40;99.90;;;;;;5046284;28;20083;-72
2021/03/13 02:55:13;;;;;;;3.33;1.60;;;6.50;99.90;;;;;;5044042;28;20589;-72
2021/03/13 02:57:40;;;;;;;4.15;1.67;;;6.50;99.90;;;;;;5055166;28;20033;-72
2021/03/13 03:00:07;;;;;;;5.57;2.00;;;6.50;99.90;;;;;;5044512;28;20032;-73
2021/03/13 03:02:36;;;;;;;6.97;2.00;;;6.50;99.90;;;;;;5051546;28;20025;-73
2021/03/13 03:05:04;;;;;;;4.18;1.75;;;6.50;99.90;;;;;;5048792;28;20025;-72
2021/03/13 03:07:31;;;;;;;4.38;1.88;;;6.60;99.90;;;;;;5044504;28;20021;-71
2021/03/13 03:09:56;;;;;;;7.15;1.80;;;6.60;99.90;;;;;;5041108;28;20024;-71
2021/03/13 03:12:24;;;;;;;4.82;1.60;;;6.60;99.90;;;;;;5047407;28;20509;-72
2021/03/13 03:14:51;;;;;;;2.55;1.27;;;6.60;99.90;;;;;;5046838;28;20024;-72
2021/03/13 03:17:18;;;;;;;3.13;1.45;;;6.50;99.90;;;;;;5047549;28;20032;-74
2021/03/13 03:19:45;;;;;;;5.28;1.73;;;6.50;99.90;;;;;;5047573;28;20476;-72
2021/03/13 03:22:11;;;;;;;3.45;1.83;;;6.50;99.90;;;;;;5051914;28;20032;-71
2021/03/13 03:24:37;;;;;;;2.72;1.40;;;6.50;99.90;;;;;;5051525;28;20029;-71
2021/03/13 03:27:06;;;;;;;2.83;1.35;;;6.50;99.90;;;;;;5055485;28;20035;-71
2021/03/13 03:29:32;;;;;;;2.85;1.35;;;6.50;99.90;;;;;;5037128;28;20024;-72
2021/03/13 03:31:57;;;;;;;3.33;1.77;;;6.50;99.90;;;;;;5049798;28;20032;-72
2021/03/13 03:34:23;;;;;;;3.30;1.60;;;6.40;99.90;;;;;;5052705;28;20087;-72
2021/03/13 03:36:49;;;;;;;5.30;1.55;;;6.30;99.90;;;;;;5051307;28;20035;-72
2021/03/13 03:39:15;;;;;;;4.10;1.33;;;6.30;99.90;;;;;;5041767;28;20590;-72
2021/03/13 03:41:43;;;;;;;2.33;1.48;;;6.30;99.90;;;;;;5027245;28;20044;-72
2021/03/13 03:44:13;;;;;;;3.55;1.35;;;6.30;99.90;;;;;;5055371;28;20033;-72
2021/03/13 03:46:39;;;;;;;1.63;1.17;;;6.30;99.90;;;;;;5049024;28;20029;-73
2021/03/13 03:49:06;;;;;;;2.75;1.23;;;6.20;99.90;;;;;;5050098;28;20041;-73
2021/03/13 03:51:33;;;;;;;5.00;1.88;;;6.30;99.90;;;;;;5051955;28;20467;-73
2021/03/13 03:54:07;;;;;;;1.92;1.35;;;6.30;99.90;;;;;;5053035;28;20584;-73
2021/03/13 03:56:33;;;;;;;1.92;1.10;;;6.20;99.90;;;;;;5053695;28;20071;-73
2021/03/13 03:59:00;;;;;;;3.13;1.45;;;6.20;99.90;;;;;;5048568;28;20052;-73
2021/03/13 04:01:27;;;;;;;2.80;1.25;;;6.20;99.90;;;;;;5028746;28;20963;-72
2021/03/13 04:03:57;;;;;;;3.38;1.52;;;6.20;99.90;;;;;;5043327;28;20719;-72
2021/03/13 04:06:23;;;;;;;1.48;1.17;;;6.20;99.90;;;;;;5049108;28;20048;-73
2021/03/13 04:08:51;;;;;;;1.75;1.10;;;6.20;99.90;;;;;;5044244;28;20407;-73
2021/03/13 04:11:20;;;;;;;0.95;0.93;;;6.20;99.90;;;;;;5043580;28;20411;-73
2021/03/13 04:13:47;;;;;;;3.17;1.27;;;6.20;99.90;;;;;;5046012;28;20056;-72
2021/03/13 04:16:13;;;;;;;1.40;1.00;;;6.30;99.90;;;;;;5054969;28;20112;-73
2021/03/13 04:18:40;;;;;;;1.10;1.00;;;6.30;99.90;;;;;;5062419;28;20047;-73
2021/03/13 04:21:06;;;;;;;2.15;1.20;;;6.30;99.90;;;;;;5050166;28;20406;-72
2021/03/13 04:23:35;;;;;;;2.50;1.10;;;6.30;99.90;;;;;;5051308;28;20539;-73
2021/03/13 04:26:04;;;;;;;3.33;1.27;;;6.30;99.90;;;;;;5026788;28;20616;-72
2021/03/13 04:28:30;;;;;;;2.85;1.00;;;6.30;99.90;;;;;;5055437;28;20025;-72
2021/03/13 04:30:56;;;;;;;2.17;1.05;;;6.30;99.90;;;;;;5056644;28;20029;-73
2021/03/13 04:33:23;;;;;;;2.55;0.95;;;6.30;99.90;;;;;;5050938;28;20082;-73
2021/03/13 04:35:52;;;;;;;2.65;1.05;;;6.30;99.90;;;;;;5051644;28;20075;-73
2021/03/13 04:38:19;;;;;;;2.47;1.25;;;6.40;99.90;;;;;;5054370;28;20040;-73
2021/03/13 04:40:46;;;;;;;1.10;0.95;;;6.40;99.90;;;;;;5050241;28;20021;-72
2021/03/13 04:43:14;;;;;;;2.05;1.25;;;6.40;99.90;;;;;;5050796;28;20811;-72
2021/03/13 04:45:42;;;;;;;1.83;1.17;;;6.40;99.90;;;;;;5059302;28;20033;-72
2021/03/13 04:48:08;;;;;;;2.45;1.08;;;6.40;99.90;;;;;;5054456;28;20055;-72
2021/03/13 04:50:34;;;;;;;1.90;1.15;;;6.40;99.90;;;;;;5032559;28;20032;-73
2021/03/13 04:53:00;;;;;;;1.33;1.02;;;6.40;99.90;;;;;;5059606;28;20029;-73
2021/03/13 04:55:25;;;;;;;1.77;1.15;;;6.40;99.90;;;;;;5048453;28;20033;-73
2021/03/13 04:57:51;;;;;;;4.65;1.35;;;6.50;99.90;;;;;;5052020;28;20098;-73
2021/03/13 05:00:17;;;;;;;2.05;1.10;;;6.50;99.90;;;;;;5047459;28;20024;-73
2021/03/13 05:02:43;;;;;;;3.20;1.30;;;6.50;99.90;;;;;;5047853;28;20124;-72
2021/03/13 05:05:09;;;;;;;2.50;1.23;;;6.60;99.90;;;;;;5054947;28;20111;-73
2021/03/13 05:07:35;;;;;;;1.63;1.08;;;6.50;99.90;;;;;;5055829;28;20040;-72
2021/03/13 05:10:02;;;;;;;4.78;1.30;;;6.50;99.90;;;;;;5055811;28;20108;-73
2021/03/13 05:12:28;;;;;;;2.20;1.15;;;6.60;99.90;;;;;;5054166;28;20093;-73
2021/03/13 05:14:53;;;;;;;2.65;1.20;;;6.50;99.90;;;;;;5053223;28;20021;-72
2021/03/13 05:17:19;;;;;;;4.28;1.00;;;6.50;99.90;;;;;;5044912;28;20506;-73
2021/03/13 05:19:45;;;;;;;1.42;1.10;;;6.50;99.90;;;;;;5053077;28;20017;-73
2021/03/13 05:22:10;;;;;;;1.38;1.00;;;6.60;99.90;;;;;;5056271;28;20025;-72
2021/03/13 05:24:42;;;;;;;5.25;1.10;;;6.50;99.90;;;;;;5030907;28;20028;-72
2021/03/13 05:27:10;;;;;;;1.55;1.00;;;6.50;99.90;;;;;;5047276;28;20056;-73
2021/03/13 05:29:36;;;;;;;4.55;1.42;;;6.50;99.90;;;;;;5055119;28;20435;-73
2021/03/13 05:32:01;;;;;;;3.83;1.20;;;6.50;99.90;;;;;;5050850;28;20035;-73
2021/03/13 05:34:29;;;;;;;4.57;1.15;;;6.50;99.90;;;;;;5053312;28;20032;-73
2021/03/13 05:36:55;;;;;;;1.77;1.23;;;6.50;99.90;;;;;;5046627;28;20021;-73
2021/03/13 05:39:20;;;;;;;1.55;1.13;;;6.40;99.90;;;;;;5051248;28;20020;-73
2021/03/13 05:41:46;;;;;;;1.75;1.25;;;6.50;99.90;;;;;;5052717;28;20025;-72
2021/03/13 05:44:13;;;;;;;2.08;1.10;;;6.50;99.90;;;;;;5045600;28;20108;-72
2021/03/13 05:46:42;;;;;;;1.10;1.00;;;6.50;99.90;;;;;;5052313;28;20021;-73
2021/03/13 05:49:09;;;;;;;3.10;1.27;;;6.50;99.90;;;;;;5055554;28;20059;-72
2021/03/13 05:51:42;;;;;;;2.10;1.30;;;6.50;99.90;;;;;;5052504;28;20116;-73
2021/03/13 05:54:08;;;;;;;3.70;1.30;;;6.50;99.90;;;;;;5046849;28;20033;-73
2021/03/13 05:56:34;;;;;;;2.72;1.35;;;6.50;99.90;;;;;;5048780;28;20029;-73
2021/03/13 05:59:01;;;;;;;2.30;1.40;;;6.60;99.90;;;;;;5051149;28;20086;-73
2021/03/13 06:01:27;;;;;;;2.22;1.70;;;6.70;99.90;;;;;;5048261;28;20028;-72
2021/03/13 06:03:54;;;;;;;4.90;1.60;;;6.70;99.90;;;;;;5052132;28;20032;-73
2021/03/13 06:06:25;;;;;;;2.58;1.60;;;6.70;99.90;;;;;;5045378;28;20024;-73
2021/03/13 06:08:51;;;;;;;4.07;1.35;;;6.80;99.90;;;;;;5048937;28;20052;-73
2021/03/13 06:11:19;;;;;;;3.42;1.65;;;6.80;99.90;;;;;;5051744;28;20060;-73
2021/03/13 06:13:45;;;;;;;3.17;1.70;;;6.80;99.90;;;;;;5048385;28;20032;-73
2021/03/13 06:16:10;;;;;;;1.75;1.40;;;6.90;99.90;;;;;;5053721;28;20077;-72
2021/03/13 06:18:48;;;;;;;2.53;1.52;;;6.90;99.90;;;;;;5049884;28;20539;-72
2021/03/13 06:21:46;;;;;;;3.13;1.48;;;6.90;99.90;;;;;;5053929;28;20499;-72
2021/03/13 06:24:12;;;;;;;2.08;1.42;;;7.00;99.90;;;;;;5009699;28;20087;-72
2021/03/13 06:26:52;;;;;;;1.73;1.55;;;7.00;99.90;;;;;;5047886;28;20025;-73
2021/03/13 06:29:21;;;;;;;2.20;1.55;;;7.00;99.90;;;;;;5035675;28;20037;-73
2021/03/13 06:32:11;;;;;;;3.67;1.90;;;7.10;99.90;;;;;;5049731;28;20457;-73
2021/03/13 06:34:37;;;;;;;2.70;1.50;;;7.10;99.90;;;;;;5053199;28;20045;-74
2021/03/13 06:37:25;;;;;;;3.15;1.50;;;7.10;99.90;;;;;;5049155;28;20430;-72
2021/03/13 06:39:54;;;;;;;1.67;1.20;;;7.20;99.90;;;;;;5046749;28;20024;-72
2021/03/13 06:42:20;;;;;;;2.30;1.60;;;7.10;99.90;;;;;;5051220;28;20452;-72
2021/03/13 06:45:02;;;;;;;1.52;1.30;;;7.10;99.90;;;;;;5056154;28;20103;-71
2021/03/13 06:47:28;;;;;;;;;;;7.20;99.90;;;;;;5050548;28;20087;-72
2021/03/13 06:50:22;;;;;;;6.90;1.73;;;7.30;99.90;;;;;;5047828;28;19912;-72
2021/03/13 06:53:07;;;;;;;3.08;1.58;;;7.30;99.90;;;;;;5048670;28;20036;-72
2021/03/13 06:55:33;;;;;;;3.15;1.63;;;7.40;99.90;;;;;;5050759;28;20020;-71
2021/03/13 06:58:14;;;;;;;5.18;1.38;;;7.40;99.90;;;;;;5045976;28;20028;-71
2021/03/13 07:00:43;;;;;;;2.05;1.75;;;7.40;99.90;;;;;;5047180;28;20082;-73
2021/03/13 07:03:13;;;;;;;2.05;1.55;;;7.50;99.90;;;;;;5048520;28;20037;-73
2021/03/13 07:05:43;;;;;;;1.77;1.55;;;7.50;99.90;;;;;;5048672;28;20040;-73
2021/03/13 07:08:23;;;;;;;3.03;1.63;;;7.50;99.90;;;;;;5041937;28;20395;-73
2021/03/13 07:10:49;;;;;;;2.47;1.50;;;7.60;99.90;;;;;;5048794;28;20021;-73
2021/03/13 07:13:41;;;;;;;2.80;1.55;;;7.60;99.90;;;;;;5055419;28;20036;-73
2021/03/13 07:16:34;;;;;;;3.63;1.23;;;7.60;99.90;;;;;;5049082;28;20506;-73
2021/03/13 07:19:06;;;;;;;2.58;1.25;;;7.60;99.90;;;;;;5048747;28;20495;-73
2021/03/13 07:21:34;;;;;;;4.60;1.55;;;7.70;99.90;;;;;;5049786;28;20103;-73
2021/03/13 07:24:04;;;;;;;2.80;1.23;;;7.70;99.90;;;;;;5043983;28;20036;-71
2021/03/13 07:26:49;;;;;;;4.97;2.10;;;7.70;99.90;;;;;;5055507;28;20035;-71
2021/03/13 07:29:18;;;;;;;9.68;1.75;;;7.70;99.90;;;;;;5046542;28;20465;-71
2021/03/13 07:31:49;;;;;;;3.50;1.63;;;7.70;99.90;;;;;;5052201;28;20111;-71
2021/03/13 07:34:20;;;;;;;2.13;1.67;;;7.70;99.90;;;;;;5050270;28;20032;-71
2021/03/13 07:36:51;;;;;;;2.30;1.80;;;7.70;99.90;;;;;;5033114;28;20386;-71
2021/03/13 07:39:18;;;;;;;;;;;7.70;99.90;;;;;;5047974;28;20036;-71
2021/03/13 07:41:58;;;;;;;2.20;1.70;;;7.80;99.90;;;;;;5054860;28;19908;-71
2021/03/13 07:44:25;;;;;;;2.42;1.75;;;7.80;99.90;;;;;;5059391;28;20040;-71
2021/03/13 07:46:51;;;;;;;3.53;1.80;;;7.70;99.90;;;;;;5062966;28;20546;-71
2021/03/13 07:49:17;;;;;;;3.92;1.92;;;7.70;99.90;;;;;;5060471;28;20114;-71
2021/03/13 07:51:44;;;;;;;3.58;1.90;;;7.80;99.90;;;;;;5061026;28;20035;-71
2021/03/13 07:54:11;;;;;;;3.53;1.75;;;7.80;99.90;;;;;;5063381;28;20024;-69
2021/03/13 07:56:41;;;;;;;2.22;1.52;;;7.80;99.90;;;;;;5062541;28;20029;-73
2021/03/13 07:59:11;;;;;;;3.55;1.50;;;7.70;99.90;;;;;;5065089;28;20020;-71
2021/03/13 08:01:50;;;;;;;4.80;1.40;;;7.60;99.90;;;;;;5063337;28;20036;-73
2021/03/13 08:04:48;;;;;;;1.42;1.30;;;7.60;99.90;;;;;;5066278;28;20447;-71
2021/03/13 08:07:19;;;;;;;5.55;1.50;;;7.60;99.90;;;;;;5034663;28;20032;-72
2021/03/13 08:09:44;;;;;;;4.03;1.60;;;7.60;99.90;;;;;;5063645;28;20127;-71
2021/03/13 08:12:11;;;;;;;4.75;1.67;;;7.70;99.90;;;;;;5060429;28;20424;-72
2021/03/13 08:14:37;;;;;;;4.72;1.50;;;7.60;99.90;;;;;;5062309;28;20028;-71
2021/03/13 08:17:07;;;;;;;3.75;1.20;;;7.60;99.90;;;;;;5060170;28;20178;-73
2021/03/13 08:19:35;;;;;;;2.05;1.33;;;7.60;99.90;;;;;;5066095;28;20048;-74
2021/03/13 08:22:14;;;;;;;2.50;1.50;;;7.60;99.90;;;;;;5062642;28;20036;-73
2021/03/13 08:24:54;;;;;;;1.83;1.23;;;7.60;99.90;;;;;;5065856;28;20033;-73
2021/03/13 08:27:38;;;;;;;2.70;1.85;;;7.50;99.90;;;;;;5062758;28;20036;-73
2021/03/13 08:30:16;;;;;;;2.40;1.42;;;7.40;99.90;;;;;;5062958;28;20556;-73
2021/03/13 08:33:00;;;;;;;2.25;1.42;;;7.40;99.90;;;;;;5062341;28;20024;-72
2021/03/13 08:35:39;;;;;;;2.28;1.70;;;7.50;99.90;;;;;;5066166;28;20040;-75
2021/03/13 08:38:05;;;;;;;2.63;1.70;;;7.50;99.90;;;;;;5064243;28;20035;-74
2021/03/13 08:40:31;;;;;;;3.67;1.83;;;7.50;99.90;;;;;;5063483;28;20028;-73
2021/03/13 08:42:58;;;;;;;3.58;1.48;;;7.50;99.90;;;;;;5061697;28;20024;-72
2021/03/13 08:45:32;;;;;;;2.33;1.80;;;7.50;99.90;;;;;;5050903;28;20021;-71
2021/03/13 08:47:57;;;;;;;5.75;1.80;;;7.50;99.90;;;;;;5060308;28;20052;-70
2021/03/13 08:50:45;;;;;;;4.20;1.92;;;7.60;99.90;;;;;;5064943;28;20430;-71
2021/03/13 08:53:35;;;;;;;2.90;1.90;;;7.60;99.90;;;;;;5052725;28;20063;-71
2021/03/13 08:56:03;;;;;;;3.15;1.88;;;7.60;99.90;;;;;;5050776;28;20032;-70
2021/03/13 08:58:39;;;;;;;2.20;1.70;;;7.60;99.90;;;;;;5051919;28;20025;-70
2021/03/13 09:01:20;;;;;;;2.70;1.80;;;7.50;99.90;;;;;;5065842;28;20036;-70
2021/03/13 09:03:51;;;;;;;2.63;1.63;;;7.50;99.90;;;;;;5056258;28;20040;-69
2021/03/13 09:06:21;;;;;;;4.82;1.55;;;7.60;99.90;;;;;;5058807;28;20309;-77
2021/03/13 09:08:48;;;;;;;3.35;1.55;;;7.60;99.90;;;;;;5050060;28;20498;-72
2021/03/13 09:11:25;;;;;;;4.22;1.48;;;7.60;99.90;;;;;;5058856;28;20058;-71
2021/03/13 09:14:01;;;;;;;2.47;1.80;;;7.60;99.90;;;;;;5055263;28;20040;-72
2021/03/13 09:16:27;;;;;;;2.75;1.77;;;7.60;99.90;;;;;;5051058;28;20033;-73
2021/03/13 09:18:56;;;;;;;3.25;1.60;;;7.60;99.90;;;;;;5056805;28;20105;-71
2021/03/13 09:21:51;;;;;;;3.20;1.65;;;7.60;99.90;;;;;;5059218;28;20021;-70
2021/03/13 09:24:20;;;;;;;3.42;1.80;;;7.50;99.90;;;;;;5057494;28;20099;-71
2021/03/13 09:26:55;;;;;;;5.05;2.20;;;7.50;99.90;;;;;;5049128;28;20040;-71
2021/03/13 09:29:37;;;;;;;4.00;1.63;;;7.50;99.90;;;;;;5052040;28;20025;-72
2021/03/13 09:32:08;;;;;;;3.05;1.70;;;7.50;99.90;;;;;;5052768;28;20036;-71
2021/03/13 09:34:44;;;;;;;2.17;1.77;;;7.50;99.90;;;;;;5051003;28;20394;-71
2021/03/13 09:37:10;;;;;;;3.42;2.05;;;7.50;99.90;;;;;;5061703;28;20033;-71
2021/03/13 09:39:35;;;;;;;3.95;1.77;;;7.50;99.90;;;;;;5059725;28;20043;-71
2021/03/13 09:42:07;;;;;;;2.75;1.63;;;7.60;99.90;;;;;;5057424;28;20446;-71
2021/03/13 09:44:34;;;;;;;;;;;7.60;99.90;;;;;;5053799;28;20033;-71
2021/03/13 09:47:27;;;;;;;4.82;2.22;;;7.60;99.90;;;;;;5060014;28;19954;-70
2021/03/13 09:49:58;;;;;;;2.80;1.50;;;7.60;99.90;;;;;;5053092;28;20059;-70
2021/03/13 09:52:29;;;;;;;2.33;1.70;;;7.70;99.90;;;;;;5052386;28;20049;-70
2021/03/13 09:55:04;;;;;;;3.60;1.88;;;7.80;99.90;;;;;;5050678;28;20653;-71
2021/03/13 09:57:29;;;;;;;2.05;1.50;;;7.80;99.90;;;;;;5054558;28;20021;-71
2021/03/13 09:59:55;;;;;;;1.77;1.33;;;7.90;99.90;;;;;;5052391;28;20542;-73
2021/03/13 10:02:22;;;;;;;2.35;1.45;;;7.90;99.90;;;;;;5051681;28;20020;-70
2021/03/13 10:04:52;;;;;;;3.08;1.63;;;7.90;99.90;;;;;;5054170;28;20079;-77
2021/03/13 10:07:18;;;;;;;1.98;1.50;;;8.00;99.90;;;;;;5056191;28;20036;-76
2021/03/13 10:09:55;;;;;;;4.07;1.65;;;8.10;99.90;;;;;;5052846;28;20079;-72
2021/03/13 10:12:33;;;;;;;5.45;1.77;;;8.00;99.90;;;;;;5052192;28;20032;-71
2021/03/13 10:15:19;;;;;;;3.30;1.58;;;8.00;99.90;;;;;;5059433;28;20038;-72
2021/03/13 10:18:00;;;;;;;3.30;1.70;;;8.10;99.90;;;;;;5052359;28;20028;-71
2021/03/13 10:20:29;;;;;;;3.08;1.63;;;8.10;99.90;;;;;;5055210;28;20020;-73
2021/03/13 10:23:01;;;;;;;3.80;1.40;;;8.20;99.90;;;;;;5055126;28;20033;-72
2021/03/13 10:25:27;;;;;;;2.85;1.52;;;8.20;99.90;;;;;;5053493;28;20024;-71
2021/03/13 10:27:52;;;;;;;1.20;1.10;;;8.20;99.90;;;;;;5049724;28;20111;-72
2021/03/13 10:30:26;;;;;;;1.80;1.35;;;8.30;99.90;;;;;;5055362;28;20021;-71
2021/03/13 10:32:52;;;;;;;1.73;1.50;;;8.40;99.90;;;;;;5058578;28;20098;-69
2021/03/13 10:35:27;;;;;;;2.25;1.20;;;8.40;99.90;;;;;;5059051;28;20124;-73
2021/03/13 10:37:55;;;;;;;2.10;1.10;;;8.40;99.90;;;;;;5054140;28;20466;-70
2021/03/13 10:40:36;;;;;;;5.20;1.20;;;8.40;99.90;;;;;;5052522;28;20594;-69
2021/03/13 10:43:27;;;;;;;3.05;1.42;;;8.50;99.90;;;;;;5055426;28;20033;-72
2021/03/13 10:45:56;;;;;;;2.20;1.20;;;8.60;99.90;;;;;;5048782;28;20033;-72
2021/03/13 10:48:21;;;;;;;1.52;0.90;;;8.70;99.90;;;;;;5057661;28;20534;-73
2021/03/13 10:50:47;;;;;;;1.90;1.40;;;8.70;99.90;;;;;;5055650;28;20124;-72
2021/03/13 10:53:31;;;;;;;2.33;1.23;;;8.70;99.90;;;;;;5053569;28;20040;-72
2021/03/13 10:56:07;;;;;;;3.30;1.10;;;8.70;99.90;;;;;;5052369;28;20224;-72
2021/03/13 10:58:34;;;;;;;1.48;1.02;;;8.70;99.90;;;;;;5057007;28;20025;-73
2021/03/13 11:01:02;;;;;;;1.60;1.27;;;8.80;99.90;;;;;;5064292;28;20119;-71
2021/03/13 11:03:28;;;;;;;1.00;0.88;;;8.80;99.90;;;;;;5054518;28;20198;-73
2021/03/13 11:05:54;;;;;;;1.10;0.80;;;8.80;99.90;;;;;;5061846;28;20717;-72
2021/03/13 11:08:25;;;;;;;1.70;1.25;;;8.70;99.90;;;;;;5059561;28;20380;-72
2021/03/13 11:10:51;;;;;;;1.02;0.80;;;8.70;99.90;;;;;;5055653;28;20391;-73
2021/03/13 11:13:27;;;;;;;1.15;0.70;;;8.70;99.90;;;;;;5053786;28;20541;-72
2021/03/13 11:15:52;;;;;;;1.40;1.30;;;8.80;99.90;;;;;;5059333;28;20112;-72
2021/03/13 11:18:19;;;;;;;1.00;0.60;;;8.80;99.90;;;;;;5074647;28;20107;-72
2021/03/13 11:20:45;;;;;;;1.05;0.90;;;8.80;99.90;;;;;;5052069;28;20028;-73
2021/03/13 11:23:11;;;;;;;1.40;0.90;;;8.90;99.90;;;;;;5063467;28;20176;-72
2021/03/13 11:25:37;;;;;;;2.13;1.00;;;9.00;99.90;;;;;;5047266;28;20036;-72
2021/03/13 11:28:06;;;;;;;0.60;0.60;;;9.10;99.90;;;;;;5061169;28;20029;-72
2021/03/13 11:30:31;;;;;;;1.35;0.70;;;9.20;99.90;;;;;;5053095;28;20039;-71
2021/03/13 11:32:57;;;;;;;1.05;0.90;;;9.20;99.90;;;;;;5059247;28;20033;-73
2021/03/13 11:35:23;;;;;;;1.42;1.00;;;9.30;99.90;;;;;;5055120;28;20029;-72
2021/03/13 11:37:50;;;;;;;2.08;1.17;;;9.30;99.90;;;;;;5054268;28;20028;-72
2021/03/13 11:40:18;;;;;;;1.95;1.35;;;9.30;99.90;;;;;;5055502;28;20024;-72
2021/03/13 11:42:44;;;;;;;1.38;0.90;;;9.30;99.90;;;;;;5048167;28;20162;-73
2021/03/13 11:45:12;;;;;;;1.58;1.17;;;9.40;99.90;;;;;;5057645;28;20048;-73
2021/03/13 11:47:38;;;;;;;2.45;1.33;;;9.50;99.90;;;;;;5059290;28;20071;-72
2021/03/13 11:50:09;;;;;;;1.40;1.05;;;9.70;99.90;;;;;;5053354;28;20025;-71
2021/03/13 11:52:36;;;;;;;4.03;1.27;;;9.90;99.90;;;;;;5054150;28;20036;-70
2021/03/13 11:55:02;;;;;;;1.58;1.13;;;10.00;99.90;;;;;;5059530;28;20029;-70
2021/03/13 11:57:27;;;;;;;2.10;1.50;;;10.10;99.90;;;;;;5062186;28;20367;-70
2021/03/13 11:59:53;;;;;;;3.10;1.00;;;10.10;99.90;;;;;;5047708;28;20033;-69
2021/03/13 12:02:19;;;;;;;1.48;1.10;;;10.20;99.90;;;;;;5048463;28;20064;-75
2021/03/13 12:04:45;;;;;;;1.38;0.90;;;10.40;99.90;;;;;;5054171;28;20035;-73
2021/03/13 12:07:11;;;;;;;1.08;0.98;;;10.50;99.90;;;;;;5063297;28;20028;-70
2021/03/13 12:09:37;;;;;;;1.10;1.00;;;10.50;99.90;;;;;;5058965;28;20025;-72
2021/03/13 12:12:06;;;;;;;2.13;1.35;;;10.70;99.90;;;;;;5054195;28;20025;-71
2021/03/13 12:14:33;;;;;;;2.70;1.63;;;11.10;99.90;;;;;;5053320;28;20079;-73
2021/03/13 12:16:59;;;;;;;2.35;1.38;;;11.30;99.90;;;;;;5060316;28;20025;-73
2021/03/13 12:19:25;;;;;;;0.82;0.80;;;11.40;99.90;;;;;;5048243;28;20083;-73
2021/03/13 12:21:50;;;;;;;1.33;0.80;;;11.50;99.90;;;;;;5052012;28;20177;-73
2021/03/13 12:24:16;;;;;;;1.45;1.20;;;11.60;99.90;;;;;;5051456;28;20033;-74
2021/03/13 12:26:43;;;;;;;1.50;1.20;;;11.90;99.90;;;;;;5055619;28;20036;-74
2021/03/13 12:29:09;;;;;;;0.93;0.80;;;12.20;99.90;;;;;;5051912;28;20059;-74
2021/03/13 12:31:34;;;;;;;0.57;0.57;;;12.40;99.90;;;;;;5049294;28;20060;-73
2021/03/13 12:34:00;;;;;;;3.20;1.55;;;12.60;99.90;;;;;;5053929;28;20450;-71
2021/03/13 12:36:25;;;;;;;3.05;2.45;;;12.60;99.30;;;;;;5060813;28;20107;-71
2021/03/13 12:38:51;;;;;;;0.93;0.80;;;12.30;98.50;;;;;;5057246;28;20032;-72
2021/03/13 12:41:17;;;;;;;1.88;1.30;;;12.10;99.10;;;;;;5056437;28;20016;-76
2021/03/13 12:43:43;;;;;;;1.17;1.00;;;11.80;98.70;;;;;;5047889;28;20107;-75
2021/03/13 12:46:16;;;;;;;0.80;0.70;;;11.70;99.20;;;;;;5061413;28;20078;-72
2021/03/13 12:48:46;;;;;;;2.67;1.00;;;11.40;99.60;;;;;;5063625;28;20048;-72
2021/03/13 12:51:13;;;;;;;0.85;0.70;;;11.30;99.90;;;;;;5062451;28;20040;-74
2021/03/13 12:53:40;;;;;;;1.00;0.70;;;11.30;99.90;;;;;;5064982;28;20107;-73
2021/03/13 12:56:05;;;;;;;0.75;0.75;;;11.20;99.60;;;;;;5067794;28;20024;-71
2021/03/13 12:58:31;;;;;;;0.60;0.60;;;11.30;99.90;;;;;;5065549;28;20129;-73
2021/03/13 13:00:56;;;;;;;3.10;0.80;;;11.40;98.80;;;;;;5064976;28;20360;-75
2021/03/13 13:03:22;;;;;;;3.63;0.60;;;11.50;98.40;;;;;;5066146;28;20029;-72
2021/03/13 13:05:48;;;;;;;0.68;0.57;;;11.60;98.00;;;;;;5065355;28;21304;-72
2021/03/13 13:08:14;;;;;;;1.70;1.30;;;11.50;98.00;;;;;;5065512;28;20024;-73
2021/03/13 13:10:40;;;;;;;1.40;0.77;;;11.40;97.40;;;;;;5060373;28;20032;-73